Time;durP1;ratioP1;P1;durP2;ratioP2;P2;SDS_P1;SDS_P2;PMS_P1;PMS_P2;Temp;Humidity;BMP_temperature;BMP_pressure;BME280_temperature;BME280_humidity;BME280_pressure;Samples;Min_cycle;Max_cycle;Signal;HPM_P1;HPM_P2
2022/12/08 00:01:33;;;;;;;51.83;31.90;;;;;;;;;;5057659;28;20112;-91
2022/12/08 00:04:00;;;;;;;52.95;32.03;;;;;;;;;;5056881;28;20025;-91
2022/12/08 00:09:21;;;;;;;54.35;32.78;;;;;;;;;;5057765;28;20055;-93
2022/12/08 00:11:47;;;;;;;54.25;33.13;;;;;;;;;;5056538;28;20422;-92
2022/12/08 00:14:13;;;;;;;60.10;35.08;;;;;;;;;;5057506;28;20032;-92
2022/12/08 00:16:40;;;;;;;61.95;36.38;;;;;;;;;;5056385;28;20060;-93
2022/12/08 00:19:06;;;;;;;55.72;33.47;;;;;;;;;;5056513;28;20025;-93
2022/12/08 00:21:32;;;;;;;61.10;35.60;;;;;;;;;;5058347;28;20097;-92
2022/12/08 00:23:58;;;;;;;56.47;33.85;;;;;;;;;;5060700;28;20021;-95
2022/12/08 00:26:24;;;;;;;56.15;33.35;;;;;;;;;;5061840;28;20066;-94
2022/12/08 00:28:50;;;;;;;55.95;33.83;;;;;;;;;;5060649;28;20032;-94
2022/12/08 00:31:16;;;;;;;54.40;33.38;;;;;;;;;;5061458;28;20029;-92
2022/12/08 00:33:42;;;;;;;64.53;37.10;;;;;;;;;;5061224;28;20035;-92
2022/12/08 00:36:09;;;;;;;63.65;35.35;;;;;;;;;;5060283;28;20138;-93
2022/12/08 00:38:36;;;;;;;59.97;35.03;;;;;;;;;;5061273;28;20115;-91
2022/12/08 00:41:02;;;;;;;57.63;34.10;;;;;;;;;;5060164;28;20025;-91
2022/12/08 00:43:28;;;;;;;57.83;34.10;;;;;;;;;;5061227;28;20314;-91
2022/12/08 00:45:54;;;;;;;60.78;35.70;;;;;;;;;;5060156;28;20028;-92
2022/12/08 00:48:20;;;;;;;62.90;35.63;;;;;;;;;;5060278;28;20036;-91
2022/12/08 00:50:46;;;;;;;62.72;33.72;;;;;;;;;;5060695;28;20045;-90
2022/12/08 00:53:12;;;;;;;58.85;34.33;;;;;;;;;;5060102;28;20315;-91
2022/12/08 00:55:38;;;;;;;51.22;31.00;;;;;;;;;;5060310;28;20017;-92
2022/12/08 00:58:04;;;;;;;48.70;27.95;;;;;;;;;;5061085;28;20021;-92
2022/12/08 01:00:30;;;;;;;43.38;26.90;;;;;;;;;;5060936;28;20028;-91
2022/12/08 01:02:56;;;;;;;42.97;25.65;;;;;;;;;;5059860;28;20021;-93
2022/12/08 01:05:22;;;;;;;43.92;25.88;;;;;;;;;;5059858;28;20035;-93
2022/12/08 01:07:48;;;;;;;40.08;25.98;;;;;;;;;;5060951;28;20387;-93
2022/12/08 01:10:15;;;;;;;42.00;26.80;;;;;;;;;;5060962;28;20021;-91
2022/12/08 01:12:41;;;;;;;43.08;27.20;;;;;;;;;;5059853;28;20423;-92
2022/12/08 01:15:07;;;;;;;39.03;25.60;;;;;;;;;;5059942;28;20047;-92
2022/12/08 01:17:33;;;;;;;41.95;25.48;;;;;;;;;;5060195;28;20443;-92
2022/12/08 01:20:00;;;;;;;41.08;26.90;;;;;;;;;;5059642;28;20133;-91
2022/12/08 01:22:27;;;;;;;39.90;25.98;;;;;;;;;;5060361;28;20417;-90
2022/12/08 01:24:53;;;;;;;39.35;24.13;;;;;;;;;;5059652;28;20120;-91
2022/12/08 01:27:19;;;;;;;34.63;22.13;;;;;;;;;;5059607;28;20017;-92
2022/12/08 01:29:45;;;;;;;37.35;23.92;;;;;;;;;;5059348;28;20112;-94
2022/12/08 01:32:11;;;;;;;34.13;22.23;;;;;;;;;;5060081;28;20024;-94
2022/12/08 01:34:37;;;;;;;37.85;23.92;;;;;;;;;;5060177;28;20057;-93
2022/12/08 01:37:03;;;;;;;44.28;26.33;;;;;;;;;;5059307;28;20025;-91
2022/12/08 01:39:29;;;;;;;47.47;28.02;;;;;;;;;;5059295;28;20040;-92
2022/12/08 01:41:55;;;;;;;49.70;28.65;;;;;;;;;;5060061;28;20346;-91
2022/12/08 01:44:21;;;;;;;46.33;26.33;;;;;;;;;;5060175;28;20045;-93
2022/12/08 01:46:47;;;;;;;42.70;25.48;;;;;;;;;;5059299;28;20024;-93
2022/12/08 01:49:46;;;;;;;43.03;25.20;;;;;;;;;;5059975;28;20044;-92
2022/12/08 01:52:31;;;;;;;40.60;23.80;;;;;;;;;;4998856;28;20042;-92
2022/12/08 01:55:03;;;;;;;33.85;21.00;;;;;;;;;;4998957;28;20034;-91
2022/12/08 01:57:31;;;;;;;34.50;22.02;;;;;;;;;;4982604;28;20030;-92
2022/12/08 02:00:01;;;;;;;33.88;20.27;;;;;;;;;;4982602;28;20031;-93
2022/12/08 02:02:30;;;;;;;30.00;19.50;;;;;;;;;;4982457;28;20038;-92
2022/12/08 02:04:56;;;;;;;32.22;20.48;;;;;;;;;;4982528;28;20029;-91
2022/12/08 02:07:23;;;;;;;34.72;21.05;;;;;;;;;;4998805;28;20042;-91
2022/12/08 02:09:49;;;;;;;34.13;20.50;;;;;;;;;;4982470;28;20029;-91
2022/12/08 02:12:16;;;;;;;30.95;19.38;;;;;;;;;;4982247;28;20413;-93
2022/12/08 02:14:42;;;;;;;29.55;18.73;;;;;;;;;;4998704;28;20129;-94
2022/12/08 02:17:17;;;;;;;29.70;18.55;;;;;;;;;;4998594;28;20042;-92
2022/12/08 02:19:51;;;;;;;29.45;18.80;;;;;;;;;;4981892;28;20455;-93
2022/12/08 02:22:20;;;;;;;30.50;19.23;;;;;;;;;;4982158;28;20069;-93
2022/12/08 02:24:53;;;;;;;30.45;18.38;;;;;;;;;;4982484;28;20077;-93
2022/12/08 02:27:28;;;;;;;31.20;18.75;;;;;;;;;;5017895;28;20086;-94
2022/12/08 02:30:07;;;;;;;28.88;18.80;;;;;;;;;;5058204;28;20021;-94
2022/12/08 02:32:36;;;;;;;28.30;18.88;;;;;;;;;;5058986;28;20056;-91
2022/12/08 02:35:20;;;;;;;29.58;18.02;;;;;;;;;;5058126;28;20403;-92
2022/12/08 02:38:04;;;;;;;27.83;18.48;;;;;;;;;;5058104;28;20036;-93
2022/12/08 02:40:36;;;;;;;30.00;19.70;;;;;;;;;;5058724;28;20304;-92
2022/12/08 02:43:08;;;;;;;31.40;19.27;;;;;;;;;;5059058;28;20025;-91
2022/12/08 02:45:34;;;;;;;;;;;;;;;;;;5059144;28;20311;-92
2022/12/08 02:48:00;;;;;;;30.23;18.85;;;;;;;;;;5057993;28;19909;-92
2022/12/08 02:50:26;;;;;;;30.15;19.17;;;;;;;;;;5058597;28;20053;-91
2022/12/08 02:52:53;;;;;;;32.63;20.10;;;;;;;;;;5057869;28;20045;-92
2022/12/08 02:55:25;;;;;;;32.08;20.42;;;;;;;;;;5058710;28;20040;-93
2022/12/08 02:57:51;;;;;;;;;;;;;;;;;;5071520;28;20318;-91
2022/12/08 03:00:18;;;;;;;32.70;19.88;;;;;;;;;;5078461;28;19911;-92
2022/12/08 03:02:57;;;;;;;33.03;21.55;;;;;;;;;;5078676;28;20024;-93
2022/12/08 03:05:38;;;;;;;32.75;20.48;;;;;;;;;;5078664;28;20025;-93
2022/12/08 03:08:12;;;;;;;29.70;21.10;;;;;;;;;;5078404;28;20407;-93
2022/12/08 03:10:41;;;;;;;31.90;20.60;;;;;;;;;;5078665;28;20025;-92
2022/12/08 03:13:10;;;;;;;33.28;21.25;;;;;;;;;;5077353;28;20075;-93
2022/12/08 03:15:37;;;;;;;33.45;20.55;;;;;;;;;;5078508;28;20034;-93
2022/12/08 03:18:05;;;;;;;34.13;20.83;;;;;;;;;;5077348;28;20036;-91
2022/12/08 03:20:33;;;;;;;31.00;20.45;;;;;;;;;;5077465;28;20067;-93
2022/12/08 03:22:59;;;;;;;33.08;21.55;;;;;;;;;;5078231;28;20035;-91
2022/12/08 03:25:27;;;;;;;40.00;23.73;;;;;;;;;;5078078;28;20043;-91
2022/12/08 03:27:53;;;;;;;36.35;23.15;;;;;;;;;;5078090;28;20074;-92
2022/12/08 03:30:19;;;;;;;47.67;25.45;;;;;;;;;;5078276;28;20062;-92
2022/12/08 03:33:04;;;;;;;43.10;24.20;;;;;;;;;;5077998;28;20016;-92
2022/12/08 03:35:32;;;;;;;35.03;22.55;;;;;;;;;;5078046;28;20024;-92
2022/12/08 03:38:17;;;;;;;47.33;26.52;;;;;;;;;;5077847;28;20029;-92
2022/12/08 03:41:17;;;;;;;49.05;27.75;;;;;;;;;;5078123;28;20059;-94
2022/12/08 03:43:30;;;;;;;49.25;28.88;;;;;;;;;;5077830;28;20052;-92
2022/12/08 03:45:56;;;;;;;43.13;23.95;;;;;;;;;;5076844;28;20028;-92
2022/12/08 03:48:22;;;;;;;32.25;21.50;;;;;;;;;;5078118;28;20324;-93
2022/12/08 03:50:48;;;;;;;32.60;22.02;;;;;;;;;;5077484;28;20052;-92
2022/12/08 03:53:14;;;;;;;34.13;22.38;;;;;;;;;;5078117;28;20032;-92
2022/12/08 03:55:40;;;;;;;43.33;24.55;;;;;;;;;;5077155;28;20346;-93
2022/12/08 03:58:06;;;;;;;50.60;26.52;;;;;;;;;;5077970;28;20020;-91
2022/12/08 04:00:32;;;;;;;55.00;29.55;;;;;;;;;;5078016;28;20123;-91
2022/12/08 04:02:58;;;;;;;61.88;33.47;;;;;;;;;;5077845;28;20078;-92
2022/12/08 04:05:24;;;;;;;61.20;32.80;;;;;;;;;;5077973;28;20013;-93
2022/12/08 04:07:50;;;;;;;54.63;29.92;;;;;;;;;;5076702;28;20020;-92
2022/12/08 04:10:16;;;;;;;47.22;26.25;;;;;;;;;;5077597;28;20025;-92
2022/12/08 04:12:42;;;;;;;49.42;26.35;;;;;;;;;;5077751;28;20032;-91
2022/12/08 04:15:08;;;;;;;40.13;25.73;;;;;;;;;;5077797;28;20033;-93
2022/12/08 04:17:34;;;;;;;58.15;34.90;;;;;;;;;;5077851;28;20081;-93
2022/12/08 04:20:19;;;;;;;64.93;38.28;;;;;;;;;;5077918;28;20044;-91
2022/12/08 04:22:45;;;;;;;60.55;36.13;;;;;;;;;;5076488;28;20029;-91
2022/12/08 04:25:11;;;;;;;63.40;37.83;;;;;;;;;;5077287;28;20029;-93
2022/12/08 04:27:37;;;;;;;56.13;34.15;;;;;;;;;;5077682;28;20414;-93
2022/12/08 04:30:03;;;;;;;42.45;28.38;;;;;;;;;;5077857;28;20051;-93
2022/12/08 04:32:30;;;;;;;43.40;27.42;;;;;;;;;;5077362;28;20103;-92
2022/12/08 04:34:56;;;;;;;50.13;29.10;;;;;;;;;;5076533;28;20025;-93
2022/12/08 04:37:22;;;;;;;51.85;31.60;;;;;;;;;;5076538;28;20020;-92
2022/12/08 04:39:48;;;;;;;59.03;32.05;;;;;;;;;;5076516;28;20046;-91
2022/12/08 04:42:14;;;;;;;53.92;30.65;;;;;;;;;;5077247;28;20021;-93
2022/12/08 04:44:40;;;;;;;53.42;30.90;;;;;;;;;;5077445;28;20111;-91
2022/12/08 04:47:06;;;;;;;46.97;28.65;;;;;;;;;;5076297;28;20029;-92
2022/12/08 04:49:32;;;;;;;52.40;30.60;;;;;;;;;;5076068;28;20053;-92
2022/12/08 04:51:58;;;;;;;48.03;29.52;;;;;;;;;;5077708;28;20039;-93
2022/12/08 04:54:25;;;;;;;51.22;30.17;;;;;;;;;;5076341;28;20052;-92
2022/12/08 04:56:51;;;;;;;51.85;30.08;;;;;;;;;;5077339;28;20031;-91
2022/12/08 04:59:17;;;;;;;47.50;28.90;;;;;;;;;;5076457;28;20024;-91
2022/12/08 05:01:43;;;;;;;44.30;25.83;;;;;;;;;;5076957;28;20025;-91
2022/12/08 05:04:09;;;;;;;39.17;25.13;;;;;;;;;;5076135;28;20025;-91
2022/12/08 05:06:35;;;;;;;40.65;25.33;;;;;;;;;;5076359;28;20119;-90
2022/12/08 05:09:01;;;;;;;43.08;25.63;;;;;;;;;;5080631;28;20098;-92
2022/12/08 05:11:27;;;;;;;41.08;25.98;;;;;;;;;;5080100;28;20035;-91
2022/12/08 05:13:54;;;;;;;37.90;23.27;;;;;;;;;;5079550;28;20095;-93
2022/12/08 05:16:20;;;;;;;35.22;22.45;;;;;;;;;;5081196;28;20024;-91
2022/12/08 05:18:46;;;;;;;35.22;23.65;;;;;;;;;;5079727;28;20060;-92
2022/12/08 05:21:12;;;;;;;36.63;22.92;;;;;;;;;;5080470;28;20036;-93
2022/12/08 05:23:38;;;;;;;47.22;26.73;;;;;;;;;;5079582;28;20025;-93
2022/12/08 05:26:04;;;;;;;51.55;28.83;;;;;;;;;;5079547;28;20337;-91
2022/12/08 05:28:30;;;;;;;58.10;31.83;;;;;;;;;;5079502;28;20035;-91
2022/12/08 05:30:56;;;;;;;64.78;37.35;;;;;;;;;;5080376;28;20472;-91
2022/12/08 05:33:22;;;;;;;59.47;33.45;;;;;;;;;;5080344;28;20315;-91
2022/12/08 05:35:48;;;;;;;52.03;30.75;;;;;;;;;;5079599;28;20434;-91
2022/12/08 05:38:14;;;;;;;57.80;31.08;;;;;;;;;;5079382;28;20052;-92
2022/12/08 05:40:42;;;;;;;57.00;34.38;;;;;;;;;;5080464;28;20016;-92
2022/12/08 05:43:09;;;;;;;49.95;29.33;;;;;;;;;;5080377;28;20028;-91
2022/12/08 05:45:35;;;;;;;40.70;26.15;;;;;;;;;;5067900;28;20020;-92
2022/12/08 05:51:05;;;;;;;36.08;22.30;;;;;;;;;;5058061;28;20144;-91
2022/12/08 05:53:31;;;;;;;38.85;24.02;;;;;;;;;;5058974;28;20017;-91
2022/12/08 05:55:57;;;;;;;39.33;24.27;;;;;;;;;;5058800;28;20357;-90
2022/12/08 05:58:23;;;;;;;44.78;26.75;;;;;;;;;;5073834;28;20060;-91
2022/12/08 06:00:50;;;;;;;43.88;26.58;;;;;;;;;;5080216;28;20086;-91
2022/12/08 06:03:17;;;;;;;43.58;27.10;;;;;;;;;;5064545;28;20027;-90
2022/12/08 06:05:45;;;;;;;37.80;24.40;;;;;;;;;;5041753;28;20030;-89
2022/12/08 06:08:11;;;;;;;50.70;26.25;;;;;;;;;;5042120;28;20053;-84
2022/12/08 06:10:41;;;;;;;106.10;50.20;;;;;;;;;;5065220;28;20108;-85
2022/12/08 06:13:07;;;;;;;117.93;54.15;;;;;;;;;;5057884;28;20079;-86
2022/12/08 06:15:35;;;;;;;107.15;51.55;;;;;;;;;;5060260;28;20066;-94
2022/12/08 06:18:01;;;;;;;133.75;61.70;;;;;;;;;;5041747;28;20060;-89
2022/12/08 06:20:27;;;;;;;88.80;46.80;;;;;;;;;;5059063;28;20025;-89
2022/12/08 06:22:54;;;;;;;55.45;32.17;;;;;;;;;;5059523;28;20032;-89
2022/12/08 06:25:20;;;;;;;43.85;25.65;;;;;;;;;;5059503;28;20044;-89
2022/12/08 06:27:46;;;;;;;46.45;27.73;;;;;;;;;;5059495;28;20036;-89
2022/12/08 06:30:12;;;;;;;137.20;58.30;;;;;;;;;;5059290;28;20040;-89
2022/12/08 06:32:38;;;;;;;137.40;59.28;;;;;;;;;;5059323;28;20025;-90
2022/12/08 06:35:04;;;;;;;94.88;42.05;;;;;;;;;;5059549;28;20418;-90
2022/12/08 06:37:31;;;;;;;56.65;30.88;;;;;;;;;;5059305;28;20033;-90
2022/12/08 06:39:57;;;;;;;48.35;26.55;;;;;;;;;;5059153;28;20077;-89
2022/12/08 06:45:08;;;;;;;33.85;22.55;;;;;;;;;;5059290;28;20036;-88
2022/12/08 06:47:34;;;;;;;29.50;20.88;;;;;;;;;;5058797;28;20066;-88
2022/12/08 06:50:00;;;;;;;60.75;38.10;;;;;;;;;;5057904;28;20045;-90
2022/12/08 06:52:26;;;;;;;65.72;40.10;;;;;;;;;;5059102;28;20047;-88
2022/12/08 06:54:52;;;;;;;71.30;37.25;;;;;;;;;;5058545;28;20075;-88
2022/12/08 06:57:18;;;;;;;50.30;27.63;;;;;;;;;;5058933;28;20043;-89
2022/12/08 06:59:44;;;;;;;48.40;27.73;;;;;;;;;;5058882;28;20021;-89
2022/12/08 07:02:11;;;;;;;56.03;30.40;;;;;;;;;;5057615;28;20358;-90
2022/12/08 07:04:37;;;;;;;93.80;45.20;;;;;;;;;;5057751;28;20067;-89
2022/12/08 07:07:03;;;;;;;152.57;96.13;;;;;;;;;;5058661;28;20052;-89
2022/12/08 07:09:29;;;;;;;509.60;221.85;;;;;;;;;;5058363;28;20025;-89
2022/12/08 07:11:55;;;;;;;221.88;104.13;;;;;;;;;;5058678;28;20099;-88
2022/12/08 07:14:23;;;;;;;96.00;51.25;;;;;;;;;;5057646;28;20038;-89
2022/12/08 07:16:50;;;;;;;83.22;47.83;;;;;;;;;;5058371;28;20365;-89
2022/12/08 07:19:16;;;;;;;80.10;46.58;;;;;;;;;;5058533;28;20029;-89
2022/12/08 07:21:42;;;;;;;66.95;39.28;;;;;;;;;;5058457;28;20031;-89
2022/12/08 07:24:08;;;;;;;57.92;35.08;;;;;;;;;;5057222;28;20114;-88
2022/12/08 07:26:35;;;;;;;61.45;33.25;;;;;;;;;;5058324;28;20017;-89
2022/12/08 07:29:01;;;;;;;50.40;29.70;;;;;;;;;;5058285;28;20044;-89
2022/12/08 07:31:27;;;;;;;43.10;25.38;;;;;;;;;;5058012;28;20075;-89
2022/12/08 07:33:53;;;;;;;42.92;24.95;;;;;;;;;;5058314;28;20021;-90
2022/12/08 07:36:20;;;;;;;58.38;33.92;;;;;;;;;;5058304;28;20100;-87
2022/12/08 07:38:46;;;;;;;102.10;51.03;;;;;;;;;;5058322;28;20032;-88
2022/12/08 07:41:13;;;;;;;112.50;53.85;;;;;;;;;;5056984;28;20025;-90
2022/12/08 07:43:40;;;;;;;92.05;49.15;;;;;;;;;;5056813;28;20025;-88
2022/12/08 07:46:06;;;;;;;70.93;39.60;;;;;;;;;;5057951;28;20058;-89
2022/12/08 07:48:32;;;;;;;89.28;46.95;;;;;;;;;;5056943;28;20029;-88
2022/12/08 07:51:02;;;;;;;115.90;56.05;;;;;;;;;;5056847;28;20043;-88
2022/12/08 07:53:28;;;;;;;176.63;79.45;;;;;;;;;;5057796;28;20078;-89
2022/12/08 07:55:54;;;;;;;95.18;46.90;;;;;;;;;;5058035;28;20021;-89
2022/12/08 07:58:20;;;;;;;61.78;33.38;;;;;;;;;;5057866;28;20021;-88
2022/12/08 08:00:46;;;;;;;66.20;38.58;;;;;;;;;;5056760;28;20021;-88
2022/12/08 08:03:13;;;;;;;78.05;42.83;;;;;;;;;;5057651;28;20083;-89
2022/12/08 08:05:39;;;;;;;77.50;42.00;;;;;;;;;;5057704;28;20043;-88
2022/12/08 08:08:05;;;;;;;62.22;35.95;;;;;;;;;;5056740;28;20067;-88
2022/12/08 08:10:31;;;;;;;54.65;29.65;;;;;;;;;;5058144;28;20025;-88
2022/12/08 08:13:00;;;;;;;38.33;22.63;;;;;;;;;;5056301;28;20346;-88
2022/12/08 08:15:26;;;;;;;35.53;21.95;;;;;;;;;;5057096;28;20044;-88
2022/12/08 08:17:53;;;;;;;44.17;25.23;;;;;;;;;;5056412;28;20079;-88
2022/12/08 08:20:20;;;;;;;46.97;26.48;;;;;;;;;;5056553;28;20075;-89
2022/12/08 08:22:47;;;;;;;38.47;24.35;;;;;;;;;;5057496;28;20025;-88
2022/12/08 08:25:13;;;;;;;63.10;37.58;;;;;;;;;;5056238;28;20204;-89
2022/12/08 08:27:39;;;;;;;69.75;41.55;;;;;;;;;;5057315;28;20021;-88
2022/12/08 08:30:08;;;;;;;26.50;17.65;;;;;;;;;;5056523;28;20025;-87
2022/12/08 08:32:34;;;;;;;26.00;17.25;;;;;;;;;;5057525;28;20025;-89
2022/12/08 08:35:00;;;;;;;31.27;19.67;;;;;;;;;;5057405;28;20017;-88
2022/12/08 08:37:26;;;;;;;29.70;17.77;;;;;;;;;;5057383;28;20025;-87
2022/12/08 08:39:53;;;;;;;25.45;16.80;;;;;;;;;;5057402;28;20323;-88
2022/12/08 08:42:19;;;;;;;30.10;18.38;;;;;;;;;;5058843;28;20044;-88
2022/12/08 08:44:45;;;;;;;26.48;17.67;;;;;;;;;;5061360;28;20021;-89
2022/12/08 08:47:11;;;;;;;28.55;18.63;;;;;;;;;;5060972;28;20121;-90
2022/12/08 08:49:37;;;;;;;30.85;21.13;;;;;;;;;;5061539;28;20061;-88
2022/12/08 08:52:04;;;;;;;41.97;27.25;;;;;;;;;;5060287;28;20498;-89
2022/12/08 08:54:30;;;;;;;89.88;43.47;;;;;;;;;;5060185;28;20116;-89
2022/12/08 08:56:57;;;;;;;37.90;22.73;;;;;;;;;;5061076;28;20421;-88
2022/12/08 08:59:24;;;;;;;44.55;24.67;;;;;;;;;;5060143;28;20042;-88
2022/12/08 09:01:50;;;;;;;80.80;37.65;;;;;;;;;;5060801;28;20025;-89
2022/12/08 09:04:16;;;;;;;75.38;36.22;;;;;;;;;;5060992;28;20021;-88
2022/12/08 09:06:44;;;;;;;42.55;22.42;;;;;;;;;;5059828;28;20072;-89
2022/12/08 09:09:10;;;;;;;35.97;21.23;;;;;;;;;;5059825;28;20025;-88
2022/12/08 09:11:36;;;;;;;57.28;31.83;;;;;;;;;;5060532;28;20052;-89
2022/12/08 09:14:02;;;;;;;49.13;28.33;;;;;;;;;;5060788;28;20032;-88
2022/12/08 09:16:28;;;;;;;54.75;29.00;;;;;;;;;;5060582;28;20051;-88
2022/12/08 09:18:54;;;;;;;50.00;27.52;;;;;;;;;;5060830;28;20047;-88
2022/12/08 09:21:22;;;;;;;35.65;20.42;;;;;;;;;;5060622;28;20053;-88
2022/12/08 09:23:48;;;;;;;44.60;24.38;;;;;;;;;;5059631;28;20063;-89
2022/12/08 09:26:14;;;;;;;30.00;19.20;;;;;;;;;;5059638;28;20021;-88
2022/12/08 09:28:45;;;;;;;29.75;18.88;;;;;;;;;;5060562;28;20067;-89
2022/12/08 09:31:14;;;;;;;39.00;23.45;;;;;;;;;;5060296;28;20029;-89
2022/12/08 09:33:40;;;;;;;60.92;32.88;;;;;;;;;;5060251;28;20304;-89
2022/12/08 09:36:07;;;;;;;63.60;33.50;;;;;;;;;;5059487;28;20078;-88
2022/12/08 09:38:33;;;;;;;53.85;29.40;;;;;;;;;;5060026;28;20040;-88
2022/12/08 09:40:59;;;;;;;49.47;29.42;;;;;;;;;;5059326;28;20044;-88
2022/12/08 09:43:44;;;;;;;59.22;32.38;;;;;;;;;;5060199;28;20025;-89
2022/12/08 09:46:12;;;;;;;38.50;22.70;;;;;;;;;;5060150;28;20445;-88
2022/12/08 09:48:40;;;;;;;41.97;24.63;;;;;;;;;;5058681;28;20029;-90
2022/12/08 09:51:08;;;;;;;47.05;27.42;;;;;;;;;;5051506;28;20046;-89
2022/12/08 09:53:36;;;;;;;42.50;25.10;;;;;;;;;;5037947;28;20024;-89
2022/12/08 09:56:05;;;;;;;40.65;24.05;;;;;;;;;;5054995;28;20021;-90
2022/12/08 09:58:37;;;;;;;44.47;26.75;;;;;;;;;;5053973;28;20033;-88
2022/12/08 10:01:03;;;;;;;41.55;24.77;;;;;;;;;;5060045;28;20025;-88
2022/12/08 10:03:30;;;;;;;31.77;20.45;;;;;;;;;;5059609;28;20025;-88
2022/12/08 10:06:04;;;;;;;36.20;20.20;;;;;;;;;;5059845;28;20025;-89
2022/12/08 10:08:37;;;;;;;37.67;23.40;;;;;;;;;;5059849;28;20331;-88
2022/12/08 10:11:10;;;;;;;41.95;25.85;;;;;;;;;;5059597;28;20025;-89
2022/12/08 10:13:54;;;;;;;37.38;23.58;;;;;;;;;;5059493;28;20025;-88
2022/12/08 10:16:35;;;;;;;73.18;32.83;;;;;;;;;;5059667;28;20029;-88
2022/12/08 10:19:09;;;;;;;66.20;33.35;;;;;;;;;;5059761;28;20323;-89
2022/12/08 10:21:35;;;;;;;78.00;38.60;;;;;;;;;;5059280;28;20108;-89
2022/12/08 10:24:05;;;;;;;41.13;25.10;;;;;;;;;;5059803;28;20036;-88
2022/12/08 10:26:31;;;;;;;42.70;26.15;;;;;;;;;;5059462;28;20510;-88
2022/12/08 10:29:00;;;;;;;44.50;27.60;;;;;;;;;;5059630;28;20075;-90
2022/12/08 10:31:26;;;;;;;42.58;25.65;;;;;;;;;;5059916;28;20035;-88
2022/12/08 10:33:57;;;;;;;34.25;22.70;;;;;;;;;;5059456;28;20338;-87
2022/12/08 10:36:27;;;;;;;30.73;18.90;;;;;;;;;;5059136;28;20040;-87
2022/12/08 10:38:53;;;;;;;31.90;18.77;;;;;;;;;;5058500;28;20025;-87
2022/12/08 10:41:19;;;;;;;30.52;21.05;;;;;;;;;;5059119;28;20029;-87
2022/12/08 10:43:48;;;;;;;31.85;18.90;;;;;;;;;;5058300;28;20028;-87
2022/12/08 10:46:19;;;;;;;186.75;108.65;;;;;;;;;;5058955;28;20017;-87
2022/12/08 10:48:52;;;;;;;235.00;127.30;;;;;;;;;;5059058;28;20106;-86
2022/12/08 10:51:23;;;;;;;135.85;78.82;;;;;;;;;;5059057;28;20060;-87
2022/12/08 10:53:49;;;;;;;114.05;58.00;;;;;;;;;;5058063;28;20316;-86
2022/12/08 10:56:16;;;;;;;232.75;91.43;;;;;;;;;;5059053;28;20029;-87
2022/12/08 10:58:43;;;;;;;230.25;91.10;;;;;;;;;;5059030;28;20017;-86
2022/12/08 11:01:14;;;;;;;107.80;49.88;;;;;;;;;;5058701;28;20056;-86
2022/12/08 11:03:48;;;;;;;263.88;103.50;;;;;;;;;;5057604;28;20029;-87
2022/12/08 11:06:17;;;;;;;193.30;82.32;;;;;;;;;;5057760;28;20039;-89
2022/12/08 11:09:03;;;;;;;267.90;114.75;;;;;;;;;;5057634;28;20029;-89
2022/12/08 11:11:48;;;;;;;369.15;150.52;;;;;;;;;;5057779;28;20029;-88
2022/12/08 11:14:25;;;;;;;402.25;170.65;;;;;;;;;;5057333;28;20118;-88
2022/12/08 11:16:52;;;;;;;167.43;75.68;;;;;;;;;;5057238;28;20124;-88
2022/12/08 11:19:19;;;;;;;353.40;158.40;;;;;;;;;;5058441;28;20029;-89
2022/12/08 11:21:46;;;;;;;391.60;175.38;;;;;;;;;;5057234;28;20029;-88
2022/12/08 11:24:15;;;;;;;269.88;120.88;;;;;;;;;;5058634;28;20025;-88
2022/12/08 11:26:51;;;;;;;502.98;242.40;;;;;;;;;;5058296;28;20032;-89
2022/12/08 11:29:17;;;;;;;220.85;100.78;;;;;;;;;;5057235;28;20354;-89
2022/12/08 11:31:48;;;;;;;462.67;227.35;;;;;;;;;;5058517;28;20098;-87
2022/12/08 11:34:19;;;;;;;436.08;211.02;;;;;;;;;;5058084;28;20025;-88
2022/12/08 11:36:46;;;;;;;476.15;240.25;;;;;;;;;;5057992;28;20033;-88
2022/12/08 11:39:12;;;;;;;668.35;346.45;;;;;;;;;;5057045;28;20323;-88
2022/12/08 11:41:40;;;;;;;262.77;122.00;;;;;;;;;;5057149;28;20040;-88
2022/12/08 11:44:06;;;;;;;360.92;162.75;;;;;;;;;;5057591;28;20036;-88
2022/12/08 11:46:35;;;;;;;320.48;145.73;;;;;;;;;;5058232;28;20025;-88
2022/12/08 11:49:12;;;;;;;406.13;184.43;;;;;;;;;;5057695;28;20035;-89
2022/12/08 11:51:57;;;;;;;398.65;169.10;;;;;;;;;;5057863;28;20363;-89
2022/12/08 11:54:31;;;;;;;316.30;135.27;;;;;;;;;;5057365;28;20068;-87
2022/12/08 11:56:58;;;;;;;165.75;74.32;;;;;;;;;;5057590;28;20053;-88
2022/12/08 11:59:28;;;;;;;115.72;54.58;;;;;;;;;;5056927;28;20060;-88
2022/12/08 12:01:54;;;;;;;153.25;74.68;;;;;;;;;;5056958;28;20046;-88
2022/12/08 12:04:33;;;;;;;616.58;288.67;;;;;;;;;;5056627;28;20412;-87
2022/12/08 12:07:15;;;;;;;791.67;373.10;;;;;;;;;;5057849;28;20328;-88
2022/12/08 12:09:47;;;;;;;654.63;303.30;;;;;;;;;;5056940;28;20408;-85
2022/12/08 12:12:22;;;;;;;716.30;340.90;;;;;;;;;;5057519;28;20517;-87
2022/12/08 12:14:51;;;;;;;477.90;222.85;;;;;;;;;;5057209;28;20426;-85
2022/12/08 12:17:29;;;;;;;507.05;246.32;;;;;;;;;;5057237;28;20311;-88
2022/12/08 12:19:59;;;;;;;199.55;92.53;;;;;;;;;;5056555;28;20072;-89
2022/12/08 12:22:28;;;;;;;146.45;70.05;;;;;;;;;;5057367;28;20116;-89
2022/12/08 12:24:55;;;;;;;90.43;47.90;;;;;;;;;;5056581;28;20083;-88
2022/12/08 12:27:27;;;;;;;238.75;112.25;;;;;;;;;;5057188;28;20021;-89
2022/12/08 12:29:55;;;;;;;115.05;56.85;;;;;;;;;;5057964;28;20026;-89
2022/12/08 12:32:21;;;;;;;114.63;53.70;;;;;;;;;;5056861;28;20400;-89
2022/12/08 12:34:49;;;;;;;86.05;43.55;;;;;;;;;;5056275;28;20041;-90
2022/12/08 12:37:21;;;;;;;87.85;47.17;;;;;;;;;;5057506;28;20021;-88
2022/12/08 12:39:54;;;;;;;110.72;55.42;;;;;;;;;;5057296;28;20430;-89
2022/12/08 12:42:38;;;;;;;60.22;32.80;;;;;;;;;;5057542;28;20048;-90
2022/12/08 12:45:16;;;;;;;130.75;63.97;;;;;;;;;;5056105;28;20039;-90
2022/12/08 12:47:49;;;;;;;89.03;45.40;;;;;;;;;;5056271;28;20036;-89
2022/12/08 12:50:28;;;;;;;63.20;34.08;;;;;;;;;;5056992;28;20358;-88
2022/12/08 12:52:54;;;;;;;62.90;33.60;;;;;;;;;;5063456;28;20081;-89
2022/12/08 12:55:21;;;;;;;103.88;50.42;;;;;;;;;;5076329;28;20070;-89
2022/12/08 12:57:54;;;;;;;153.82;65.75;;;;;;;;;;5076220;28;20028;-89
2022/12/08 13:00:22;;;;;;;236.65;90.72;;;;;;;;;;5076467;28;20468;-89
2022/12/08 13:02:49;;;;;;;240.05;93.50;;;;;;;;;;5076335;28;20292;-90
2022/12/08 13:05:23;;;;;;;252.25;103.13;;;;;;;;;;5076906;28;20111;-88
2022/12/08 13:07:54;;;;;;;380.58;146.75;;;;;;;;;;5077317;28;20284;-88
2022/12/08 13:10:22;;;;;;;184.77;76.30;;;;;;;;;;5076128;28;20025;-90
2022/12/08 13:13:06;;;;;;;107.60;48.25;;;;;;;;;;5077076;28;20021;-88
2022/12/08 13:15:34;;;;;;;246.32;93.03;;;;;;;;;;5077146;28;20047;-89
2022/12/08 13:18:00;;;;;;;111.15;47.22;;;;;;;;;;5075558;28;20044;-88
2022/12/08 13:20:26;;;;;;;96.13;41.40;;;;;;;;;;5077359;28;20113;-89
2022/12/08 13:22:52;;;;;;;79.28;38.15;;;;;;;;;;5075965;28;20055;-90
2022/12/08 13:25:37;;;;;;;215.60;87.25;;;;;;;;;;5076971;28;20021;-89
2022/12/08 13:28:15;;;;;;;126.88;55.13;;;;;;;;;;5076609;28;20036;-88
2022/12/08 13:30:42;;;;;;;91.57;40.58;;;;;;;;;;5080593;28;20021;-89
2022/12/08 13:33:14;;;;;;;82.75;38.97;;;;;;;;;;5079151;28;20418;-89
2022/12/08 13:35:44;;;;;;;67.15;33.30;;;;;;;;;;5080306;28;20036;-89
2022/12/08 13:38:12;;;;;;;227.02;86.45;;;;;;;;;;5079555;28;20021;-89
2022/12/08 13:40:41;;;;;;;166.13;62.53;;;;;;;;;;5079462;28;20127;-89
2022/12/08 13:43:15;;;;;;;64.72;33.50;;;;;;;;;;5062152;28;20040;-88
2022/12/08 13:45:42;;;;;;;128.73;55.47;;;;;;;;;;5079099;28;20120;-90
2022/12/08 13:48:29;;;;;;;86.95;40.88;;;;;;;;;;5079978;28;20387;-89
2022/12/08 13:50:55;;;;;;;81.85;37.55;;;;;;;;;;5079900;28;20461;-89
2022/12/08 13:53:27;;;;;;;85.35;34.45;;;;;;;;;;5080287;28;20029;-90
2022/12/08 13:55:59;;;;;;;65.33;30.80;;;;;;;;;;5080390;28;20070;-90
2022/12/08 13:58:33;;;;;;;157.02;57.22;;;;;;;;;;5080318;28;20307;-89
2022/12/08 14:01:13;;;;;;;355.15;134.30;;;;;;;;;;5079099;28;20115;-89
2022/12/08 14:03:48;;;;;;;330.92;127.35;;;;;;;;;;5079805;28;20419;-90
2022/12/08 14:06:16;;;;;;;349.52;136.13;;;;;;;;;;5079859;28;20032;-87
2022/12/08 14:08:43;;;;;;;384.92;146.57;;;;;;;;;;5079992;28;20028;-89
2022/12/08 14:11:32;;;;;;;594.58;242.05;;;;;;;;;;5079118;28;20048;-90
2022/12/08 14:13:58;;;;;;;557.20;225.95;;;;;;;;;;5059298;28;20067;-89
2022/12/08 14:16:40;;;;;;;273.55;103.30;;;;;;;;;;5059331;28;20029;-89
2022/12/08 14:22:13;;;;;;;380.58;123.30;;;;;;;;;;5059549;28;20048;-89
2022/12/08 14:24:39;;;;;;;394.73;141.50;;;;;;;;;;5044983;28;20022;-90
2022/12/08 14:27:11;;;;;;;489.67;179.70;;;;;;;;;;5048492;28;20021;-90
2022/12/08 14:29:43;;;;;;;444.58;165.05;;;;;;;;;;5058412;28;20401;-90
2022/12/08 14:32:09;;;;;;;;;;;;;;;;;;5058804;28;20419;-89
2022/12/08 14:34:39;;;;;;;407.77;135.45;;;;;;;;;;5059119;28;19911;-89